Aérodrome :
LOGIN :

S'inscrire | Disclaimer

   EN    FR    IT 

 










Légende :    VFR   VFR Marginal   IFR   IFR Intensif   IFR Très Intensif
Visi : 
Plafond : 
>= 8 km
>= 3000ft
5 à 8 km
1000 à 3000 ft
1500m à 5 km
500 à 1000 ft
800 à 1500m
200 à 500 ft
< 800m
< 200 ft
Symboles :   Orages  Brouillard  Fortes neiges  Fortes précipitations  Vent > 20 kt
SIGMETs :   Divers  Orages  Givrage  Turbulence  Onde Orograph.  Cendres Volcan.






- Altitude de l'aérodrome : 33 ft
- Code IATA : MHZ


EGUN - RAF Mildenhall

DERNIER METAR :
  • 192156Z AUTO 03005KT 2400 -RA BR OVC012 12/12 A2984 RMK AO2 RAB2056E00RAB16E38RAB44 SLP108 P0001 T01230123

METARs EXPIRÉS :
  • 192144Z AUTO 05005KT 2400 -RA BR OVC012 12/12 A2985 RMK AO2 RAB2056E00RAB16E38RAB44 SLP111
  • 192138Z AUTO 05006KT 2400 BR OVC012 12/12 A2985 RMK AO2 RAB2056E00RAB16 SLP111
  • 192122Z AUTO 06006KT 2400 -RA BR BKN014 13/13 A2986 RMK AO2 RAB2056E00RAB16 SLP115
  • 192110Z AUTO 06005KT 2200 BR BKN014 BKN019 13/13 A2987 RMK AO2 RAB2056E00 SLP118
  • 192056Z 05006KT 9999 BKN017 OVC023 13/13 A2987 RMK AO2A SLP118 T01260126 57014
  • 191956Z 07006KT 9999 OVC022 13/13 A2987 RMK AO2A SLP118 T01300130

TAF AMD TAF EGUN
Valide du 19 à 21h jusqu'au 21 à 02h UTC


192145Z 1921/2102 05012KT 8000 -RA BR OVC010 510009 QNH2973INS
TEMPO 1921/2004 05010G15KT 6000 BR VCTS OVC010CB
BECMG 2007/2008 02009KT 9999 NSW BKN005 OVC010 QNH2974INS
BECMG 2013/2014 05009KT 9999 BKN012 OVC020 QNH2979INS
TEMPO 2014/2020 8000 BR BKN005 OVC010
BECMG 2020/2021 04009KT 8000 -SHRA BKN009 OVC030 QNH2973INS TX15/2012Z TN12/2020Z



MET'MAP, la Météo Aéronautique d'un coup d'oeil ! - Copyright ORBIFLY Décembre 2007 - Disclaimer

ORBIFLY MET'MAP TEAM :

Programmation & Développement : Alexandra Zaïnal
Sur une idée originale de : Baudouin d'Aumeries
Assistance à la programmation : Marc-Olivier Méhu
Soutien technique & logistique : Manuel Goepfert

Contact : metmap@orbifly.com




SOURCES & CREDITS :

   NOAA